sensor_id;sensor_type;location;lat;lon;timestamp;temperature;humidity
18067;DHT22;9158;51.528;7.192;2022-10-31T00:00:13;15.70;99.90
18067;DHT22;9158;51.528;7.192;2022-10-31T00:00:44;15.70;99.90
18067;DHT22;9158;51.528;7.192;2022-10-31T00:01:18;15.70;99.90
18067;DHT22;9158;51.528;7.192;2022-10-31T00:01:49;15.70;99.90
18067;DHT22;9158;51.528;7.192;2022-10-31T00:02:20;15.70;99.90
18067;DHT22;9158;51.528;7.192;2022-10-31T00:02:52;15.60;99.90
18067;DHT22;9158;51.528;7.192;2022-10-31T00:03:23;15.60;99.90
18067;DHT22;9158;51.528;7.192;2022-10-31T00:03:54;15.60;99.90
18067;DHT22;9158;51.528;7.192;2022-10-31T00:04:26;15.60;99.90
18067;DHT22;9158;51.528;7.192;2022-10-31T00:04:56;15.60;99.90
18067;DHT22;9158;51.528;7.192;2022-10-31T00:05:27;15.70;99.90
18067;DHT22;9158;51.528;7.192;2022-10-31T00:05:59;15.70;99.90
18067;DHT22;9158;51.528;7.192;2022-10-31T00:06:32;15.60;99.90
18067;DHT22;9158;51.528;7.192;2022-10-31T00:07:03;15.70;99.90
18067;DHT22;9158;51.528;7.192;2022-10-31T00:07:35;15.70;99.90
18067;DHT22;9158;51.528;7.192;2022-10-31T00:08:06;15.70;99.90
18067;DHT22;9158;51.528;7.192;2022-10-31T00:08:37;15.70;99.90
18067;DHT22;9158;51.528;7.192;2022-10-31T00:09:09;15.70;99.90
18067;DHT22;9158;51.528;7.192;2022-10-31T00:09:41;15.70;99.90
18067;DHT22;9158;51.528;7.192;2022-10-31T00:10:11;15.80;99.90
18067;DHT22;9158;51.528;7.192;2022-10-31T00:10:45;15.80;99.90
18067;DHT22;9158;51.528;7.192;2022-10-31T00:11:16;15.80;1.00
18067;DHT22;9158;51.528;7.192;2022-10-31T00:11:47;15.80;99.90
18067;DHT22;9158;51.528;7.192;2022-10-31T00:12:18;15.80;99.90
18067;DHT22;9158;51.528;7.192;2022-10-31T00:12:51;15.80;99.90
18067;DHT22;9158;51.528;7.192;2022-10-31T00:13:22;15.90;99.90
18067;DHT22;9158;51.528;7.192;2022-10-31T00:13:53;15.80;99.90
18067;DHT22;9158;51.528;7.192;2022-10-31T00:14:24;15.80;99.90
18067;DHT22;9158;51.528;7.192;2022-10-31T00:14:55;15.80;99.90
18067;DHT22;9158;51.528;7.192;2022-10-31T00:15:28;15.80;99.90
18067;DHT22;9158;51.528;7.192;2022-10-31T00:15:59;15.80;99.90
18067;DHT22;9158;51.528;7.192;2022-10-31T00:16:30;15.80;99.90
18067;DHT22;9158;51.528;7.192;2022-10-31T00:17:02;15.80;99.90
18067;DHT22;9158;51.528;7.192;2022-10-31T00:17:34;15.80;99.90
18067;DHT22;9158;51.528;7.192;2022-10-31T00:18:07;15.70;99.90
18067;DHT22;9158;51.528;7.192;2022-10-31T00:18:38;15.70;99.90
18067;DHT22;9158;51.528;7.192;2022-10-31T00:19:10;15.70;99.90
18067;DHT22;9158;51.528;7.192;2022-10-31T00:19:41;15.70;99.90
18067;DHT22;9158;51.528;7.192;2022-10-31T00:20:12;15.70;99.90
18067;DHT22;9158;51.528;7.192;2022-10-31T00:20:44;15.70;99.90
18067;DHT22;9158;51.528;7.192;2022-10-31T00:21:15;15.70;99.90
18067;DHT22;9158;51.528;7.192;2022-10-31T00:21:46;15.70;99.90
18067;DHT22;9158;51.528;7.192;2022-10-31T00:22:18;15.70;99.90
18067;DHT22;9158;51.528;7.192;2022-10-31T00:22:49;15.70;99.90
18067;DHT22;9158;51.528;7.192;2022-10-31T00:23:19;15.70;99.90
18067;DHT22;9158;51.528;7.192;2022-10-31T00:23:51;15.60;99.90
18067;DHT22;9158;51.528;7.192;2022-10-31T00:24:22;15.60;99.90
18067;DHT22;9158;51.528;7.192;2022-10-31T00:24:53;15.60;99.90
18067;DHT22;9158;51.528;7.192;2022-10-31T00:25:25;15.60;99.90
18067;DHT22;9158;51.528;7.192;2022-10-31T00:26:00;15.60;99.90
18067;DHT22;9158;51.528;7.192;2022-10-31T00:26:32;15.60;99.90
18067;DHT22;9158;51.528;7.192;2022-10-31T00:27:03;15.50;99.90
18067;DHT22;9158;51.528;7.192;2022-10-31T00:27:35;15.50;99.90
18067;DHT22;9158;51.528;7.192;2022-10-31T00:28:07;15.50;99.90
18067;DHT22;9158;51.528;7.192;2022-10-31T00:28:39;15.50;99.90
18067;DHT22;9158;51.528;7.192;2022-10-31T00:29:10;15.50;99.90
18067;DHT22;9158;51.528;7.192;2022-10-31T00:29:43;15.50;99.90
18067;DHT22;9158;51.528;7.192;2022-10-31T00:30:14;15.50;99.90
18067;DHT22;9158;51.528;7.192;2022-10-31T00:30:47;15.50;99.90
18067;DHT22;9158;51.528;7.192;2022-10-31T00:31:19;15.50;99.90
18067;DHT22;9158;51.528;7.192;2022-10-31T00:31:50;15.50;99.90
18067;DHT22;9158;51.528;7.192;2022-10-31T00:32:22;15.50;99.90
18067;DHT22;9158;51.528;7.192;2022-10-31T00:32:54;15.50;99.90
18067;DHT22;9158;51.528;7.192;2022-10-31T00:33:25;15.60;99.90
18067;DHT22;9158;51.528;7.192;2022-10-31T00:33:57;15.60;99.90
18067;DHT22;9158;51.528;7.192;2022-10-31T00:34:31;15.60;99.90
18067;DHT22;9158;51.528;7.192;2022-10-31T00:35:05;15.60;99.90
18067;DHT22;9158;51.528;7.192;2022-10-31T00:35:36;15.50;99.90
18067;DHT22;9158;51.528;7.192;2022-10-31T00:36:11;15.50;99.90
18067;DHT22;9158;51.528;7.192;2022-10-31T00:36:44;15.50;99.90
18067;DHT22;9158;51.528;7.192;2022-10-31T00:37:17;15.50;99.90
18067;DHT22;9158;51.528;7.192;2022-10-31T00:37:49;15.50;99.90
18067;DHT22;9158;51.528;7.192;2022-10-31T00:38:21;15.50;99.90
18067;DHT22;9158;51.528;7.192;2022-10-31T00:38:52;15.50;99.90
18067;DHT22;9158;51.528;7.192;2022-10-31T00:39:26;15.50;99.90
18067;DHT22;9158;51.528;7.192;2022-10-31T00:39:57;15.50;99.90
18067;DHT22;9158;51.528;7.192;2022-10-31T00:40:28;15.50;99.90
18067;DHT22;9158;51.528;7.192;2022-10-31T00:41:00;15.50;99.90
18067;DHT22;9158;51.528;7.192;2022-10-31T00:41:30;15.50;99.90
18067;DHT22;9158;51.528;7.192;2022-10-31T00:42:02;15.50;99.90
18067;DHT22;9158;51.528;7.192;2022-10-31T00:42:33;15.50;99.90
18067;DHT22;9158;51.528;7.192;2022-10-31T00:43:04;15.40;99.90
18067;DHT22;9158;51.528;7.192;2022-10-31T00:43:35;15.40;99.90
18067;DHT22;9158;51.528;7.192;2022-10-31T00:44:07;15.30;99.90
18067;DHT22;9158;51.528;7.192;2022-10-31T00:44:38;15.30;99.90
18067;DHT22;9158;51.528;7.192;2022-10-31T00:45:10;15.30;99.90
18067;DHT22;9158;51.528;7.192;2022-10-31T00:45:41;15.30;99.90
18067;DHT22;9158;51.528;7.192;2022-10-31T00:46:15;15.30;99.90
18067;DHT22;9158;51.528;7.192;2022-10-31T00:46:45;15.30;99.90
18067;DHT22;9158;51.528;7.192;2022-10-31T00:47:16;15.30;99.90
18067;DHT22;9158;51.528;7.192;2022-10-31T00:47:50;15.30;99.90
18067;DHT22;9158;51.528;7.192;2022-10-31T00:48:21;15.30;99.90
18067;DHT22;9158;51.528;7.192;2022-10-31T00:48:53;15.30;99.90
18067;DHT22;9158;51.528;7.192;2022-10-31T00:49:25;15.30;99.90
18067;DHT22;9158;51.528;7.192;2022-10-31T00:49:56;15.30;99.90
18067;DHT22;9158;51.528;7.192;2022-10-31T00:50:27;15.30;99.90
18067;DHT22;9158;51.528;7.192;2022-10-31T00:50:59;15.30;99.90
18067;DHT22;9158;51.528;7.192;2022-10-31T00:51:30;15.30;99.90
18067;DHT22;9158;51.528;7.192;2022-10-31T00:52:02;15.30;99.90
18067;DHT22;9158;51.528;7.192;2022-10-31T00:52:34;15.30;99.90
18067;DHT22;9158;51.528;7.192;2022-10-31T00:53:06;15.30;99.90
18067;DHT22;9158;51.528;7.192;2022-10-31T00:53:37;15.40;99.90
18067;DHT22;9158;51.528;7.192;2022-10-31T00:54:08;15.30;99.90
18067;DHT22;9158;51.528;7.192;2022-10-31T00:54:40;15.30;99.90
18067;DHT22;9158;51.528;7.192;2022-10-31T00:55:12;15.30;99.90
18067;DHT22;9158;51.528;7.192;2022-10-31T00:55:43;15.40;99.90
18067;DHT22;9158;51.528;7.192;2022-10-31T00:56:13;15.40;99.90
18067;DHT22;9158;51.528;7.192;2022-10-31T00:56:46;15.40;99.90
18067;DHT22;9158;51.528;7.192;2022-10-31T00:57:17;15.30;99.90
18067;DHT22;9158;51.528;7.192;2022-10-31T00:57:48;15.40;99.90
18067;DHT22;9158;51.528;7.192;2022-10-31T00:58:20;15.30;99.90
18067;DHT22;9158;51.528;7.192;2022-10-31T00:58:51;15.30;99.90
18067;DHT22;9158;51.528;7.192;2022-10-31T00:59:22;15.30;1.00
18067;DHT22;9158;51.528;7.192;2022-10-31T00:59:55;15.30;99.90
18067;DHT22;9158;51.528;7.192;2022-10-31T01:00:26;15.30;99.90
18067;DHT22;9158;51.528;7.192;2022-10-31T01:00:57;15.30;99.90
18067;DHT22;9158;51.528;7.192;2022-10-31T01:01:30;15.30;1.00
18067;DHT22;9158;51.528;7.192;2022-10-31T01:02:01;15.30;99.90
18067;DHT22;9158;51.528;7.192;2022-10-31T01:02:32;15.30;99.90
18067;DHT22;9158;51.528;7.192;2022-10-31T01:03:05;15.30;99.90
18067;DHT22;9158;51.528;7.192;2022-10-31T01:03:36;15.30;99.90
18067;DHT22;9158;51.528;7.192;2022-10-31T01:04:09;15.30;99.90
18067;DHT22;9158;51.528;7.192;2022-10-31T01:04:41;15.30;99.90
18067;DHT22;9158;51.528;7.192;2022-10-31T01:05:12;15.30;99.90
18067;DHT22;9158;51.528;7.192;2022-10-31T01:05:43;15.30;99.90
18067;DHT22;9158;51.528;7.192;2022-10-31T01:06:15;15.30;99.90
18067;DHT22;9158;51.528;7.192;2022-10-31T01:06:47;15.30;99.90
18067;DHT22;9158;51.528;7.192;2022-10-31T01:07:53;15.30;99.90
18067;DHT22;9158;51.528;7.192;2022-10-31T01:08:24;15.30;99.90
18067;DHT22;9158;51.528;7.192;2022-10-31T01:08:55;15.30;1.00
18067;DHT22;9158;51.528;7.192;2022-10-31T01:09:27;15.20;99.90
18067;DHT22;9158;51.528;7.192;2022-10-31T01:09:58;15.30;1.00
18067;DHT22;9158;51.528;7.192;2022-10-31T01:10:30;15.20;99.90
18067;DHT22;9158;51.528;7.192;2022-10-31T01:11:04;15.20;99.90
18067;DHT22;9158;51.528;7.192;2022-10-31T01:11:37;15.20;99.90
18067;DHT22;9158;51.528;7.192;2022-10-31T01:12:11;15.20;1.00
18067;DHT22;9158;51.528;7.192;2022-10-31T01:12:46;15.10;99.90
18067;DHT22;9158;51.528;7.192;2022-10-31T01:13:18;15.20;1.00
18067;DHT22;9158;51.528;7.192;2022-10-31T01:13:51;15.10;1.00
18067;DHT22;9158;51.528;7.192;2022-10-31T01:14:23;15.10;1.00
18067;DHT22;9158;51.528;7.192;2022-10-31T01:14:54;15.10;1.00
18067;DHT22;9158;51.528;7.192;2022-10-31T01:15:25;15.10;1.00
18067;DHT22;9158;51.528;7.192;2022-10-31T01:15:57;15.10;1.00
18067;DHT22;9158;51.528;7.192;2022-10-31T01:16:31;15.10;1.00
18067;DHT22;9158;51.528;7.192;2022-10-31T01:17:02;15.10;1.00
18067;DHT22;9158;51.528;7.192;2022-10-31T01:17:33;15.10;1.00
18067;DHT22;9158;51.528;7.192;2022-10-31T01:18:05;15.10;1.00
18067;DHT22;9158;51.528;7.192;2022-10-31T01:18:36;15.10;1.00
18067;DHT22;9158;51.528;7.192;2022-10-31T01:19:07;15.20;1.00
18067;DHT22;9158;51.528;7.192;2022-10-31T01:19:39;15.20;1.00
18067;DHT22;9158;51.528;7.192;2022-10-31T01:20:12;15.20;1.00
18067;DHT22;9158;51.528;7.192;2022-10-31T01:20:43;15.20;1.00
18067;DHT22;9158;51.528;7.192;2022-10-31T01:21:17;15.10;1.00
18067;DHT22;9158;51.528;7.192;2022-10-31T01:21:49;15.10;1.00
18067;DHT22;9158;51.528;7.192;2022-10-31T01:22:20;15.10;1.00
18067;DHT22;9158;51.528;7.192;2022-10-31T01:22:51;15.10;1.00
18067;DHT22;9158;51.528;7.192;2022-10-31T01:23:23;15.00;1.00
18067;DHT22;9158;51.528;7.192;2022-10-31T01:23:54;15.00;1.00
18067;DHT22;9158;51.528;7.192;2022-10-31T01:24:26;15.00;1.00
18067;DHT22;9158;51.528;7.192;2022-10-31T01:24:58;15.10;1.00
18067;DHT22;9158;51.528;7.192;2022-10-31T01:25:30;15.10;1.00
18067;DHT22;9158;51.528;7.192;2022-10-31T01:26:07;15.10;1.00
18067;DHT22;9158;51.528;7.192;2022-10-31T01:26:39;15.10;1.00
18067;DHT22;9158;51.528;7.192;2022-10-31T01:27:10;15.10;1.00
18067;DHT22;9158;51.528;7.192;2022-10-31T01:27:41;15.10;1.00
18067;DHT22;9158;51.528;7.192;2022-10-31T01:28:12;15.10;1.00
18067;DHT22;9158;51.528;7.192;2022-10-31T01:28:46;15.10;1.00
18067;DHT22;9158;51.528;7.192;2022-10-31T01:29:18;15.10;1.00
18067;DHT22;9158;51.528;7.192;2022-10-31T01:29:50;15.10;1.00
18067;DHT22;9158;51.528;7.192;2022-10-31T01:30:21;15.10;1.00
18067;DHT22;9158;51.528;7.192;2022-10-31T01:30:52;15.10;1.00
18067;DHT22;9158;51.528;7.192;2022-10-31T01:31:25;15.00;1.00
18067;DHT22;9158;51.528;7.192;2022-10-31T01:31:58;15.00;1.00
18067;DHT22;9158;51.528;7.192;2022-10-31T01:32:29;15.00;1.00
18067;DHT22;9158;51.528;7.192;2022-10-31T01:33:00;15.00;1.00
18067;DHT22;9158;51.528;7.192;2022-10-31T01:33:32;15.00;1.00
18067;DHT22;9158;51.528;7.192;2022-10-31T01:34:04;15.00;1.00
18067;DHT22;9158;51.528;7.192;2022-10-31T01:34:35;14.90;1.00
18067;DHT22;9158;51.528;7.192;2022-10-31T01:35:07;14.90;1.00
18067;DHT22;9158;51.528;7.192;2022-10-31T01:35:38;14.90;1.00
18067;DHT22;9158;51.528;7.192;2022-10-31T01:36:14;14.90;1.00
18067;DHT22;9158;51.528;7.192;2022-10-31T01:36:47;14.80;74.90
18067;DHT22;9158;51.528;7.192;2022-10-31T01:37:21;14.80;22.30
18067;DHT22;9158;51.528;7.192;2022-10-31T01:37:52;14.80;34.10
18067;DHT22;9158;51.528;7.192;2022-10-31T01:38:24;14.80;1.00
18067;DHT22;9158;51.528;7.192;2022-10-31T01:38:57;14.80;20.20
18067;DHT22;9158;51.528;7.192;2022-10-31T01:39:28;14.80;68.00
18067;DHT22;9158;51.528;7.192;2022-10-31T01:40:00;14.80;60.70
18067;DHT22;9158;51.528;7.192;2022-10-31T01:40:31;14.70;99.90
18067;DHT22;9158;51.528;7.192;2022-10-31T01:41:02;14.70;99.90
18067;DHT22;9158;51.528;7.192;2022-10-31T01:41:37;14.70;99.90
18067;DHT22;9158;51.528;7.192;2022-10-31T01:42:11;14.70;99.90
18067;DHT22;9158;51.528;7.192;2022-10-31T01:42:46;14.70;99.90
18067;DHT22;9158;51.528;7.192;2022-10-31T01:43:17;14.60;99.90
18067;DHT22;9158;51.528;7.192;2022-10-31T01:43:51;14.60;99.90
18067;DHT22;9158;51.528;7.192;2022-10-31T01:44:48;14.60;99.90
18067;DHT22;9158;51.528;7.192;2022-10-31T01:45:21;14.60;99.90
18067;DHT22;9158;51.528;7.192;2022-10-31T01:45:53;14.60;1.00
18067;DHT22;9158;51.528;7.192;2022-10-31T01:46:28;14.60;1.00
18067;DHT22;9158;51.528;7.192;2022-10-31T01:47:06;14.60;1.00
18067;DHT22;9158;51.528;7.192;2022-10-31T01:47:41;14.70;1.00
18067;DHT22;9158;51.528;7.192;2022-10-31T01:48:17;14.70;1.00
18067;DHT22;9158;51.528;7.192;2022-10-31T01:48:51;14.70;1.00
18067;DHT22;9158;51.528;7.192;2022-10-31T01:49:33;14.70;1.00
18067;DHT22;9158;51.528;7.192;2022-10-31T01:50:13;14.70;1.00
18067;DHT22;9158;51.528;7.192;2022-10-31T01:50:45;14.70;1.00
18067;DHT22;9158;51.528;7.192;2022-10-31T01:51:19;14.80;1.00
18067;DHT22;9158;51.528;7.192;2022-10-31T01:51:55;14.80;1.00
18067;DHT22;9158;51.528;7.192;2022-10-31T01:52:30;14.80;1.00
18067;DHT22;9158;51.528;7.192;2022-10-31T01:53:07;14.80;1.00
18067;DHT22;9158;51.528;7.192;2022-10-31T01:53:39;14.80;1.00
18067;DHT22;9158;51.528;7.192;2022-10-31T01:54:16;14.80;1.00
18067;DHT22;9158;51.528;7.192;2022-10-31T01:54:51;14.90;99.90
18067;DHT22;9158;51.528;7.192;2022-10-31T01:55:25;14.90;99.90
18067;DHT22;9158;51.528;7.192;2022-10-31T01:55:59;14.80;1.00
18067;DHT22;9158;51.528;7.192;2022-10-31T01:56:31;14.90;99.90
18067;DHT22;9158;51.528;7.192;2022-10-31T01:57:04;14.90;99.90
18067;DHT22;9158;51.528;7.192;2022-10-31T01:57:41;14.90;99.90
18067;DHT22;9158;51.528;7.192;2022-10-31T01:58:15;14.90;99.90
18067;DHT22;9158;51.528;7.192;2022-10-31T01:58:50;14.90;99.90
18067;DHT22;9158;51.528;7.192;2022-10-31T01:59:23;14.90;99.90
18067;DHT22;9158;51.528;7.192;2022-10-31T02:00:00;14.90;99.90
18067;DHT22;9158;51.528;7.192;2022-10-31T02:00:46;14.90;99.90
18067;DHT22;9158;51.528;7.192;2022-10-31T02:01:20;14.90;99.90
18067;DHT22;9158;51.528;7.192;2022-10-31T02:01:52;15.00;99.90
18067;DHT22;9158;51.528;7.192;2022-10-31T02:02:25;15.00;99.90
18067;DHT22;9158;51.528;7.192;2022-10-31T02:02:59;15.00;99.90
18067;DHT22;9158;51.528;7.192;2022-10-31T02:03:30;15.00;99.90
18067;DHT22;9158;51.528;7.192;2022-10-31T02:04:02;15.00;99.90
18067;DHT22;9158;51.528;7.192;2022-10-31T02:04:34;15.00;99.90
18067;DHT22;9158;51.528;7.192;2022-10-31T02:05:09;15.00;99.90
18067;DHT22;9158;51.528;7.192;2022-10-31T02:05:41;15.00;99.90
18067;DHT22;9158;51.528;7.192;2022-10-31T02:06:21;15.00;99.90
18067;DHT22;9158;51.528;7.192;2022-10-31T02:06:57;15.00;99.90
18067;DHT22;9158;51.528;7.192;2022-10-31T02:07:32;15.10;99.90
18067;DHT22;9158;51.528;7.192;2022-10-31T02:08:07;15.10;99.90
18067;DHT22;9158;51.528;7.192;2022-10-31T02:08:40;15.10;99.90
18067;DHT22;9158;51.528;7.192;2022-10-31T02:09:12;15.10;99.90
18067;DHT22;9158;51.528;7.192;2022-10-31T02:09:45;15.10;99.90
18067;DHT22;9158;51.528;7.192;2022-10-31T02:10:19;15.10;99.90
18067;DHT22;9158;51.528;7.192;2022-10-31T02:10:52;15.20;99.90
18067;DHT22;9158;51.528;7.192;2022-10-31T02:11:23;15.20;99.90
18067;DHT22;9158;51.528;7.192;2022-10-31T02:11:58;15.20;99.90
18067;DHT22;9158;51.528;7.192;2022-10-31T02:12:31;15.10;99.90
18067;DHT22;9158;51.528;7.192;2022-10-31T02:13:06;15.10;99.90
18067;DHT22;9158;51.528;7.192;2022-10-31T02:13:41;15.10;99.90
18067;DHT22;9158;51.528;7.192;2022-10-31T02:14:13;15.10;99.90
18067;DHT22;9158;51.528;7.192;2022-10-31T02:14:44;15.10;99.90
18067;DHT22;9158;51.528;7.192;2022-10-31T02:15:15;15.10;99.90
18067;DHT22;9158;51.528;7.192;2022-10-31T02:15:50;15.00;99.90
18067;DHT22;9158;51.528;7.192;2022-10-31T02:16:23;15.00;99.90
18067;DHT22;9158;51.528;7.192;2022-10-31T02:16:55;15.00;99.90
18067;DHT22;9158;51.528;7.192;2022-10-31T02:17:29;15.00;99.90
18067;DHT22;9158;51.528;7.192;2022-10-31T02:18:02;15.00;99.90
18067;DHT22;9158;51.528;7.192;2022-10-31T02:18:33;15.00;99.90
18067;DHT22;9158;51.528;7.192;2022-10-31T02:19:08;15.00;99.90
18067;DHT22;9158;51.528;7.192;2022-10-31T02:19:50;15.10;99.90
18067;DHT22;9158;51.528;7.192;2022-10-31T02:20:24;15.10;99.90
18067;DHT22;9158;51.528;7.192;2022-10-31T02:21:04;15.10;99.90
18067;DHT22;9158;51.528;7.192;2022-10-31T02:21:42;15.10;99.90
18067;DHT22;9158;51.528;7.192;2022-10-31T02:22:20;15.10;99.90
18067;DHT22;9158;51.528;7.192;2022-10-31T02:23:20;15.20;99.90
18067;DHT22;9158;51.528;7.192;2022-10-31T02:24:07;15.10;48.70
18067;DHT22;9158;51.528;7.192;2022-10-31T02:24:50;15.10;99.90
18067;DHT22;9158;51.528;7.192;2022-10-31T02:25:46;14.90;55.40
18067;DHT22;9158;51.528;7.192;2022-10-31T02:26:50;15.00;11.00
18067;DHT22;9158;51.528;7.192;2022-10-31T02:27:38;15.10;56.40
18067;DHT22;9158;51.528;7.192;2022-10-31T02:28:33;15.00;99.90
18067;DHT22;9158;51.528;7.192;2022-10-31T02:29:16;15.00;99.90
18067;DHT22;9158;51.528;7.192;2022-10-31T02:30:05;15.00;42.00
18067;DHT22;9158;51.528;7.192;2022-10-31T02:30:41;14.90;58.90
18067;DHT22;9158;51.528;7.192;2022-10-31T02:31:26;14.90;99.90
18067;DHT22;9158;51.528;7.192;2022-10-31T02:32:01;14.90;99.90
18067;DHT22;9158;51.528;7.192;2022-10-31T02:32:52;14.90;99.90
18067;DHT22;9158;51.528;7.192;2022-10-31T02:33:31;15.00;99.90
18067;DHT22;9158;51.528;7.192;2022-10-31T02:34:09;14.90;99.90
18067;DHT22;9158;51.528;7.192;2022-10-31T02:34:45;14.90;99.90
18067;DHT22;9158;51.528;7.192;2022-10-31T02:35:31;14.90;99.90
18067;DHT22;9158;51.528;7.192;2022-10-31T02:36:11;14.90;99.90
18067;DHT22;9158;51.528;7.192;2022-10-31T02:36:52;15.00;96.40
18067;DHT22;9158;51.528;7.192;2022-10-31T02:37:34;14.90;63.30
18067;DHT22;9158;51.528;7.192;2022-10-31T02:38:17;15.00;64.80
18067;DHT22;9158;51.528;7.192;2022-10-31T02:39:02;15.00;45.90
18067;DHT22;9158;51.528;7.192;2022-10-31T02:39:51;15.00;99.90
18067;DHT22;9158;51.528;7.192;2022-10-31T02:40:35;15.00;96.10
18067;DHT22;9158;51.528;7.192;2022-10-31T02:41:32;15.00;77.10
18067;DHT22;9158;51.528;7.192;2022-10-31T02:42:15;15.00;40.80
18067;DHT22;9158;51.528;7.192;2022-10-31T02:42:51;15.00;99.90
18067;DHT22;9158;51.528;7.192;2022-10-31T02:43:27;15.00;99.90
18067;DHT22;9158;51.528;7.192;2022-10-31T02:44:07;15.00;93.50
18067;DHT22;9158;51.528;7.192;2022-10-31T02:44:44;15.00;99.90
18067;DHT22;9158;51.528;7.192;2022-10-31T02:45:22;15.00;99.90
18067;DHT22;9158;51.528;7.192;2022-10-31T02:46:00;15.10;54.30
18067;DHT22;9158;51.528;7.192;2022-10-31T02:46:42;15.10;86.60
18067;DHT22;9158;51.528;7.192;2022-10-31T02:47:16;15.00;58.70
18067;DHT22;9158;51.528;7.192;2022-10-31T02:47:50;15.10;35.50
18067;DHT22;9158;51.528;7.192;2022-10-31T02:48:27;15.10;24.80
18067;DHT22;9158;51.528;7.192;2022-10-31T02:49:03;15.10;29.20
18067;DHT22;9158;51.528;7.192;2022-10-31T02:49:42;15.10;27.80
18067;DHT22;9158;51.528;7.192;2022-10-31T02:50:19;15.10;99.90
18067;DHT22;9158;51.528;7.192;2022-10-31T02:50:56;15.00;9.50
18067;DHT22;9158;51.528;7.192;2022-10-31T02:51:28;15.00;14.30
18067;DHT22;9158;51.528;7.192;2022-10-31T02:52:00;15.00;14.20
18067;DHT22;9158;51.528;7.192;2022-10-31T02:52:33;15.00;27.80
18067;DHT22;9158;51.528;7.192;2022-10-31T02:53:07;15.10;35.20
18067;DHT22;9158;51.528;7.192;2022-10-31T02:53:38;15.10;20.30
18067;DHT22;9158;51.528;7.192;2022-10-31T02:54:18;15.10;1.00
18067;DHT22;9158;51.528;7.192;2022-10-31T02:54:50;15.10;15.50
18067;DHT22;9158;51.528;7.192;2022-10-31T02:55:47;15.10;28.30
18067;DHT22;9158;51.528;7.192;2022-10-31T02:56:20;15.10;3.00
18067;DHT22;9158;51.528;7.192;2022-10-31T02:56:54;15.10;4.20
18067;DHT22;9158;51.528;7.192;2022-10-31T02:57:30;15.10;1.00
18067;DHT22;9158;51.528;7.192;2022-10-31T02:58:06;15.10;3.70
18067;DHT22;9158;51.528;7.192;2022-10-31T02:58:40;15.20;1.00
18067;DHT22;9158;51.528;7.192;2022-10-31T02:59:14;15.20;1.00
18067;DHT22;9158;51.528;7.192;2022-10-31T02:59:47;15.10;1.00
18067;DHT22;9158;51.528;7.192;2022-10-31T03:00:19;15.10;1.00
18067;DHT22;9158;51.528;7.192;2022-10-31T03:01:10;15.10;1.00
18067;DHT22;9158;51.528;7.192;2022-10-31T03:01:56;15.10;29.10
18067;DHT22;9158;51.528;7.192;2022-10-31T03:02:44;15.10;6.50
18067;DHT22;9158;51.528;7.192;2022-10-31T03:03:22;15.10;20.00
18067;DHT22;9158;51.528;7.192;2022-10-31T03:04:22;15.10;76.50
18067;DHT22;9158;51.528;7.192;2022-10-31T03:06:00;15.00;51.80
18067;DHT22;9158;51.528;7.192;2022-10-31T03:06:39;15.00;69.70
18067;DHT22;9158;51.528;7.192;2022-10-31T03:07:19;14.90;99.90
18067;DHT22;9158;51.528;7.192;2022-10-31T03:07:58;14.90;99.90
18067;DHT22;9158;51.528;7.192;2022-10-31T03:08:35;14.90;99.90
18067;DHT22;9158;51.528;7.192;2022-10-31T03:09:16;14.90;99.90
18067;DHT22;9158;51.528;7.192;2022-10-31T03:09:56;14.90;99.90
18067;DHT22;9158;51.528;7.192;2022-10-31T03:10:35;14.80;99.90
18067;DHT22;9158;51.528;7.192;2022-10-31T03:11:08;14.80;99.90
18067;DHT22;9158;51.528;7.192;2022-10-31T03:11:45;14.80;99.90
18067;DHT22;9158;51.528;7.192;2022-10-31T03:12:26;14.80;99.90
18067;DHT22;9158;51.528;7.192;2022-10-31T03:13:01;14.80;99.90
18067;DHT22;9158;51.528;7.192;2022-10-31T03:13:42;14.80;99.90
18067;DHT22;9158;51.528;7.192;2022-10-31T03:14:20;14.80;99.90
18067;DHT22;9158;51.528;7.192;2022-10-31T03:15:06;14.80;99.90
18067;DHT22;9158;51.528;7.192;2022-10-31T03:15:44;14.80;99.90
18067;DHT22;9158;51.528;7.192;2022-10-31T03:16:22;14.90;99.90
18067;DHT22;9158;51.528;7.192;2022-10-31T03:16:59;14.90;99.90
18067;DHT22;9158;51.528;7.192;2022-10-31T03:17:36;14.80;99.90
18067;DHT22;9158;51.528;7.192;2022-10-31T03:18:12;15.60;99.90
18067;DHT22;9158;51.528;7.192;2022-10-31T03:18:50;14.90;99.90
18067;DHT22;9158;51.528;7.192;2022-10-31T03:19:26;14.90;99.90
18067;DHT22;9158;51.528;7.192;2022-10-31T03:20:01;14.90;99.90
18067;DHT22;9158;51.528;7.192;2022-10-31T03:20:37;14.80;99.90
18067;DHT22;9158;51.528;7.192;2022-10-31T03:21:11;14.80;99.90
18067;DHT22;9158;51.528;7.192;2022-10-31T03:21:47;14.80;1.00
18067;DHT22;9158;51.528;7.192;2022-10-31T03:22:23;14.80;1.00
18067;DHT22;9158;51.528;7.192;2022-10-31T03:22:56;14.80;1.00
18067;DHT22;9158;51.528;7.192;2022-10-31T03:23:30;14.70;1.00
18067;DHT22;9158;51.528;7.192;2022-10-31T03:24:05;14.70;1.00
18067;DHT22;9158;51.528;7.192;2022-10-31T03:24:39;14.70;1.00
18067;DHT22;9158;51.528;7.192;2022-10-31T03:25:13;14.70;1.00
18067;DHT22;9158;51.528;7.192;2022-10-31T03:25:46;14.70;1.00
18067;DHT22;9158;51.528;7.192;2022-10-31T03:26:19;14.80;1.00
18067;DHT22;9158;51.528;7.192;2022-10-31T03:26:54;14.80;1.00
18067;DHT22;9158;51.528;7.192;2022-10-31T03:27:31;14.80;1.00
18067;DHT22;9158;51.528;7.192;2022-10-31T03:28:04;14.80;1.00
18067;DHT22;9158;51.528;7.192;2022-10-31T03:28:41;14.80;1.00
18067;DHT22;9158;51.528;7.192;2022-10-31T03:29:16;14.80;1.00
18067;DHT22;9158;51.528;7.192;2022-10-31T03:29:50;14.80;47.10
18067;DHT22;9158;51.528;7.192;2022-10-31T03:30:24;14.70;1.00
18067;DHT22;9158;51.528;7.192;2022-10-31T03:31:01;14.70;1.00
18067;DHT22;9158;51.528;7.192;2022-10-31T03:31:35;14.70;1.00
18067;DHT22;9158;51.528;7.192;2022-10-31T03:32:15;14.70;1.00
18067;DHT22;9158;51.528;7.192;2022-10-31T03:32:52;14.70;1.00
18067;DHT22;9158;51.528;7.192;2022-10-31T03:33:28;14.70;1.00
18067;DHT22;9158;51.528;7.192;2022-10-31T03:34:03;14.70;1.00
18067;DHT22;9158;51.528;7.192;2022-10-31T03:34:39;14.70;1.00
18067;DHT22;9158;51.528;7.192;2022-10-31T03:35:15;14.60;1.00
18067;DHT22;9158;51.528;7.192;2022-10-31T03:35:50;14.60;1.00
18067;DHT22;9158;51.528;7.192;2022-10-31T03:36:25;14.60;1.00
18067;DHT22;9158;51.528;7.192;2022-10-31T03:37:00;14.50;1.00
18067;DHT22;9158;51.528;7.192;2022-10-31T03:37:35;15.90;1.00
18067;DHT22;9158;51.528;7.192;2022-10-31T03:38:07;14.50;1.00
18067;DHT22;9158;51.528;7.192;2022-10-31T03:38:40;14.50;1.00
18067;DHT22;9158;51.528;7.192;2022-10-31T03:39:14;14.50;1.00
18067;DHT22;9158;51.528;7.192;2022-10-31T03:39:48;14.50;1.00
18067;DHT22;9158;51.528;7.192;2022-10-31T03:40:21;14.50;1.00
18067;DHT22;9158;51.528;7.192;2022-10-31T03:40:56;14.50;1.00
18067;DHT22;9158;51.528;7.192;2022-10-31T03:41:34;14.50;1.00
18067;DHT22;9158;51.528;7.192;2022-10-31T03:42:12;14.50;1.00
18067;DHT22;9158;51.528;7.192;2022-10-31T03:42:50;14.50;1.00
18067;DHT22;9158;51.528;7.192;2022-10-31T03:43:29;14.50;1.00
18067;DHT22;9158;51.528;7.192;2022-10-31T03:44:06;14.50;1.00
18067;DHT22;9158;51.528;7.192;2022-10-31T03:44:44;14.50;1.00